createdAt,value
2022-12-23T00:02:05.219Z,12.45
2022-12-23T00:04:36.522Z,12.60
2022-12-23T00:07:07.873Z,12.73
2022-12-23T00:09:39.148Z,13.13
2022-12-23T00:12:28.296Z,12.77
2022-12-23T00:15:08.522Z,12.48
2022-12-23T00:17:45.444Z,11.38
2022-12-23T00:20:17.378Z,12.38
2022-12-23T00:23:06.815Z,11.70
2022-12-23T00:25:45.966Z,12.27
2022-12-23T00:28:23.318Z,11.30
2022-12-23T00:31:01.517Z,11.50
2022-12-23T00:33:41.732Z,11.20
2022-12-23T00:36:21.444Z,11.85
2022-12-23T00:39:11.288Z,11.50
2022-12-23T00:42:00.657Z,11.75
2022-12-23T00:44:32.374Z,12.32
2022-12-23T00:47:03.708Z,11.52
2022-12-23T00:49:43.859Z,11.00
2022-12-23T00:52:19.526Z,10.95
2022-12-23T00:54:50.952Z,9.98
2022-12-23T00:57:22.107Z,9.67
2022-12-23T00:59:53.456Z,9.77
2022-12-23T01:02:42.830Z,10.37
2022-12-23T01:05:43.178Z,9.55
2022-12-23T01:08:14.639Z,9.82
2022-12-23T01:10:46.110Z,9.63
2022-12-23T01:13:17.269Z,9.83
2022-12-23T01:15:48.838Z,10.03
2022-12-23T01:18:20.037Z,10.50
2022-12-23T01:20:51.389Z,9.85
2022-12-23T01:23:22.589Z,10.23
2022-12-23T01:26:01.562Z,10.00
2022-12-23T01:28:34.421Z,10.80
2022-12-23T01:31:07.773Z,10.68
2022-12-23T01:33:39.006Z,11.43
2022-12-23T01:36:12.376Z,11.73
2022-12-23T01:38:43.624Z,10.75
2022-12-23T01:41:53.168Z,12.10
2022-12-23T01:44:54.760Z,11.10
2022-12-23T01:47:50.776Z,11.07
2022-12-23T01:50:33.592Z,10.70
2022-12-23T01:53:22.711Z,11.35
2022-12-23T01:56:04.974Z,12.10
2022-12-23T02:01:51.027Z,11.32
2022-12-23T02:04:26.736Z,10.85
2022-12-23T02:07:15.969Z,11.65
2022-12-23T02:09:47.399Z,11.10
2022-12-23T02:12:36.614Z,11.65
2022-12-23T02:15:49.407Z,12.05
2022-12-23T02:21:12.730Z,12.90
2022-12-23T02:24:16.973Z,11.75
2022-12-23T02:27:06.564Z,11.82
2022-12-23T02:29:40.671Z,12.02
2022-12-23T02:32:32.924Z,12.18
2022-12-23T02:35:04.095Z,12.07
2022-12-23T02:37:53.518Z,12.50
2022-12-23T02:40:55.589Z,11.10
2022-12-23T02:43:35.689Z,12.68
2022-12-23T02:46:18.259Z,12.27
2022-12-23T02:49:30.932Z,11.75
2022-12-23T02:52:13.750Z,11.63
2022-12-23T02:54:52.559Z,11.90
2022-12-23T02:57:29.722Z,12.02
2022-12-23T03:00:02.096Z,11.45
2022-12-23T03:02:37.999Z,11.00
2022-12-23T03:05:29.938Z,11.43
2022-12-23T03:08:06.577Z,12.00
2022-12-23T03:11:03.236Z,11.25
2022-12-23T03:14:12.485Z,11.27
2022-12-23T03:17:27.641Z,11.65
2022-12-23T03:20:25.993Z,11.30
2022-12-23T03:23:19.220Z,11.15
2022-12-23T03:26:01.363Z,11.07
2022-12-23T03:28:51.215Z,11.13
2022-12-23T03:31:33.567Z,11.40
2022-12-23T03:34:10.169Z,11.38
2022-12-23T03:36:47.645Z,11.50
2022-12-23T03:39:21.949Z,10.88
2022-12-23T03:42:09.173Z,11.02
2022-12-23T03:45:10.788Z,10.85
2022-12-23T03:47:48.861Z,10.77
2022-12-23T03:50:22.188Z,10.77
2022-12-23T03:53:11.396Z,11.13
2022-12-23T03:55:55.986Z,11.18
2022-12-23T03:58:42.131Z,11.55
2022-12-23T04:01:29.349Z,10.63
2022-12-23T04:04:15.789Z,10.98
2022-12-23T04:07:02.889Z,10.95
2022-12-23T04:09:34.218Z,10.35
2022-12-23T04:12:05.899Z,10.73
2022-12-23T04:14:39.070Z,10.93
2022-12-23T04:17:10.530Z,10.68
2022-12-23T04:19:41.746Z,10.50
2022-12-23T04:22:13.777Z,10.40
2022-12-23T04:24:45.141Z,10.75
2022-12-23T04:27:17.721Z,10.93
2022-12-23T04:29:48.888Z,9.95
2022-12-23T04:32:20.239Z,10.15
2022-12-23T04:34:51.421Z,10.67
2022-12-23T04:37:22.856Z,10.17
2022-12-23T04:39:54.068Z,10.65
2022-12-23T04:42:25.731Z,11.07
2022-12-23T04:44:56.905Z,10.95
2022-12-23T04:47:28.690Z,10.30
2022-12-23T04:49:59.914Z,11.45
2022-12-23T04:52:31.308Z,10.90
2022-12-23T04:55:02.492Z,11.05
2022-12-23T04:57:33.897Z,11.53
2022-12-23T05:00:06.121Z,11.23
2022-12-23T05:02:37.662Z,10.43
2022-12-23T05:05:09.347Z,10.95
2022-12-23T05:07:40.762Z,10.55
2022-12-23T05:10:12.658Z,10.70
2022-12-23T05:12:44.174Z,11.18
2022-12-23T05:15:15.348Z,12.07
2022-12-23T05:17:46.727Z,11.13
2022-12-23T05:20:17.987Z,12.30
2022-12-23T05:22:49.398Z,11.27
2022-12-23T05:25:20.686Z,11.18
2022-12-23T05:27:52.115Z,11.83
2022-12-23T05:30:23.321Z,11.40
2022-12-23T05:33:00.761Z,10.97
2022-12-23T05:35:32.057Z,12.30
2022-12-23T05:38:04.747Z,14.67
2022-12-23T05:40:35.983Z,16.30
2022-12-23T05:43:07.492Z,18.23
2022-12-23T05:45:39.167Z,22.10
2022-12-23T05:48:10.537Z,22.20
2022-12-23T05:50:42.519Z,21.58
2022-12-23T05:55:44.460Z,18.05
2022-12-23T05:58:16.824Z,17.70
2022-12-23T06:00:47.980Z,17.80
2022-12-23T06:03:19.477Z,17.83
2022-12-23T06:05:54.330Z,20.98
2022-12-23T06:08:26.676Z,21.17
2022-12-23T06:10:57.928Z,20.13
2022-12-23T06:13:29.242Z,20.23
2022-12-23T06:16:00.457Z,19.80
2022-12-23T06:18:31.844Z,20.30
2022-12-23T06:21:03.127Z,18.98
2022-12-23T06:23:34.519Z,20.43
2022-12-23T06:26:06.337Z,20.13
2022-12-23T06:28:37.747Z,19.15
2022-12-23T06:31:09.234Z,17.98
2022-12-23T06:33:40.623Z,17.08
2022-12-23T06:36:11.984Z,18.95
2022-12-23T06:38:43.307Z,21.85
2022-12-23T06:41:14.642Z,20.60
2022-12-23T06:43:49.956Z,19.25
2022-12-23T06:46:25.227Z,20.08
2022-12-23T06:48:56.663Z,17.53
2022-12-23T06:51:27.863Z,18.40
2022-12-23T06:54:01.852Z,19.53
2022-12-23T06:56:34.749Z,18.85
2022-12-23T06:59:06.298Z,19.65
2022-12-23T07:01:37.660Z,18.05
2022-12-23T07:04:09.128Z,18.33
2022-12-23T07:06:41.224Z,19.52
2022-12-23T07:11:43.964Z,17.48
2022-12-23T07:14:15.363Z,16.33
2022-12-23T07:16:46.818Z,16.45
2022-12-23T07:19:18.225Z,16.92
2022-12-23T07:21:49.450Z,16.88
2022-12-23T07:24:20.919Z,15.73
2022-12-23T07:26:53.619Z,16.55
2022-12-23T07:29:25.082Z,15.57
2022-12-23T07:31:56.396Z,15.15
2022-12-23T07:34:27.858Z,15.82
2022-12-23T07:36:59.079Z,15.48
2022-12-23T07:39:30.718Z,15.10
2022-12-23T07:42:33.866Z,14.93
2022-12-23T07:44:53.209Z,15.27
2022-12-23T07:47:24.937Z,15.05
2022-12-23T07:49:56.301Z,14.73
2022-12-23T07:52:27.575Z,14.38
2022-12-23T07:54:58.940Z,14.17
2022-12-23T07:57:30.914Z,13.40
2022-12-23T08:02:43.865Z,13.60
2022-12-23T08:05:16.441Z,13.43
2022-12-23T08:07:47.767Z,14.00
2022-12-23T08:10:19.515Z,13.18
2022-12-23T08:12:50.710Z,12.82
2022-12-23T08:15:22.434Z,12.70
2022-12-23T08:17:53.654Z,12.80
2022-12-23T08:20:25.074Z,13.10
2022-12-23T08:22:57.451Z,12.15
2022-12-23T08:25:28.897Z,12.05
2022-12-23T08:28:00.089Z,12.23
2022-12-23T08:30:31.535Z,12.13
2022-12-23T08:33:02.728Z,12.23
2022-12-23T08:35:34.077Z,11.33
2022-12-23T08:38:05.205Z,11.88
2022-12-23T08:40:36.690Z,11.43
2022-12-23T08:43:10.890Z,11.90
2022-12-23T08:45:42.286Z,11.50
2022-12-23T08:48:14.301Z,10.60
2022-12-23T08:50:48.036Z,11.35
2022-12-23T08:53:19.199Z,11.13
2022-12-23T08:55:50.837Z,10.37
2022-12-23T08:58:22.057Z,10.40
2022-12-23T09:00:53.472Z,10.43
2022-12-23T09:03:24.877Z,10.63
2022-12-23T09:05:56.476Z,11.02
2022-12-23T09:08:27.619Z,10.48
2022-12-23T09:10:59.006Z,10.30
2022-12-23T09:13:35.096Z,10.35
2022-12-23T09:16:08.128Z,10.30
2022-12-23T09:18:40.227Z,11.00
2022-12-23T09:21:16.002Z,10.68
2022-12-23T09:23:47.620Z,12.50
2022-12-23T09:26:30.987Z,12.57
2022-12-23T09:29:02.556Z,12.65
2022-12-23T09:31:37.301Z,13.18
2022-12-23T09:34:09.384Z,13.23
2022-12-23T09:36:40.589Z,13.15
2022-12-23T09:39:12.526Z,12.63
2022-12-23T09:42:09.293Z,12.65
2022-12-23T09:45:21.717Z,12.77
2022-12-23T09:47:53.727Z,13.27
2022-12-23T09:53:17.426Z,13.15
2022-12-23T09:56:11.553Z,13.68
2022-12-23T09:58:47.235Z,15.23
2022-12-23T10:01:41.474Z,15.68
2022-12-23T10:04:24.451Z,15.35
2022-12-23T10:07:25.331Z,15.70
2022-12-23T10:09:58.782Z,17.48
2022-12-23T10:12:44.499Z,17.45
2022-12-23T10:15:38.308Z,15.27
2022-12-23T10:18:22.556Z,13.85
2022-12-23T10:21:00.784Z,13.88
2022-12-23T10:23:38.914Z,13.13
2022-12-23T10:26:31.462Z,13.80
2022-12-23T10:29:19.817Z,14.70
2022-12-23T10:32:17.688Z,15.70
2022-12-23T10:35:12.012Z,13.93
2022-12-23T10:38:01.768Z,15.93
2022-12-23T10:40:46.886Z,16.40
2022-12-23T10:43:33.420Z,17.27
2022-12-23T10:46:29.258Z,17.58
2022-12-23T10:49:14.715Z,17.08
2022-12-23T10:51:55.610Z,19.80
2022-12-23T10:54:34.361Z,19.33
2022-12-23T10:57:08.420Z,18.60
2022-12-23T10:59:39.813Z,17.35
2022-12-23T11:02:17.294Z,16.48
2022-12-23T11:04:50.536Z,17.42
2022-12-23T11:07:46.411Z,17.00
2022-12-23T11:10:29.983Z,16.67
2022-12-23T11:13:02.068Z,16.52
2022-12-23T11:15:36.207Z,16.42
2022-12-23T11:18:14.209Z,14.50
2022-12-23T11:20:48.186Z,14.18
2022-12-23T11:23:28.699Z,12.90
2022-12-23T11:26:15.827Z,13.82
2022-12-23T11:29:00.108Z,13.18
2022-12-23T11:31:36.901Z,13.50
2022-12-23T11:34:16.683Z,13.90
2022-12-23T11:37:01.760Z,12.38
2022-12-23T11:39:39.992Z,12.63
2022-12-23T11:42:17.871Z,13.43
2022-12-23T11:44:53.079Z,11.82
2022-12-23T11:47:43.057Z,12.60
2022-12-23T11:50:29.233Z,12.18
2022-12-23T11:53:14.619Z,10.38
2022-12-23T11:56:12.547Z,11.52
2022-12-23T11:59:18.146Z,12.90
2022-12-23T12:01:51.279Z,10.82
2022-12-23T12:04:27.511Z,11.35
2022-12-23T12:06:59.879Z,10.90
2022-12-23T12:09:34.327Z,11.13
2022-12-23T12:12:09.942Z,10.02
2022-12-23T12:14:47.391Z,10.98
2022-12-23T12:17:57.479Z,10.38
2022-12-23T12:20:31.774Z,9.90
2022-12-23T12:23:16.994Z,10.50
2022-12-23T12:26:02.300Z,10.05
2022-12-23T12:28:49.664Z,9.55
2022-12-23T12:31:30.456Z,9.88
2022-12-23T12:34:20.200Z,11.13
2022-12-23T12:37:12.387Z,9.35
2022-12-23T12:40:09.368Z,9.23
2022-12-23T12:42:44.160Z,9.25
2022-12-23T12:45:26.151Z,9.77
2022-12-23T12:48:04.619Z,10.05
2022-12-23T12:51:03.126Z,9.70
2022-12-23T12:53:35.508Z,10.00
2022-12-23T12:56:29.059Z,9.35
2022-12-23T12:59:00.769Z,11.82
2022-12-23T13:01:54.519Z,9.32
2022-12-23T13:04:54.974Z,9.32
2022-12-23T13:07:41.006Z,10.48
2022-12-23T13:10:50.803Z,10.60
2022-12-23T13:13:41.613Z,10.00
2022-12-23T13:16:21.767Z,10.23
2022-12-23T13:19:23.567Z,10.70
2022-12-23T13:22:07.725Z,9.95
2022-12-23T13:25:06.429Z,9.70
2022-12-23T13:27:47.267Z,10.38
2022-12-23T13:30:23.032Z,9.82
2022-12-23T13:33:12.207Z,10.02
2022-12-23T13:36:06.063Z,9.82
2022-12-23T13:38:51.950Z,9.32
2022-12-23T13:41:32.679Z,10.70
2022-12-23T13:44:09.314Z,10.05
2022-12-23T13:47:04.777Z,10.10
2022-12-23T13:50:16.161Z,10.13
2022-12-23T13:53:08.725Z,9.65
2022-12-23T13:55:59.072Z,8.32
2022-12-23T13:58:32.766Z,10.45
2022-12-23T14:01:12.821Z,10.73
2022-12-23T14:03:44.303Z,11.10
2022-12-23T14:06:24.063Z,12.25
2022-12-23T14:08:57.021Z,12.80
2022-12-23T14:11:33.767Z,10.40
2022-12-23T14:14:07.529Z,11.80
2022-12-23T14:17:02.454Z,10.45
2022-12-23T14:19:33.957Z,10.38
2022-12-23T14:22:20.580Z,9.68
2022-12-23T14:25:05.169Z,8.63
2022-12-23T14:27:57.620Z,9.18
2022-12-23T14:30:37.542Z,8.48
2022-12-23T14:33:24.202Z,9.40
2022-12-23T14:36:15.775Z,8.48
2022-12-23T14:39:15.463Z,8.60
2022-12-23T14:42:03.442Z,8.40
2022-12-23T14:44:39.867Z,8.95
2022-12-23T14:47:35.943Z,7.93
2022-12-23T14:50:35.522Z,7.72
2022-12-23T14:53:29.557Z,7.78
2022-12-23T14:56:14.429Z,7.85
2022-12-23T14:58:49.245Z,7.35
2022-12-23T15:01:22.298Z,6.55
2022-12-23T15:04:01.298Z,7.35
2022-12-23T15:06:41.413Z,8.20
2022-12-23T15:09:27.198Z,7.15
2022-12-23T15:12:01.761Z,7.18
2022-12-23T15:14:38.063Z,7.05
2022-12-23T15:17:40.287Z,7.82
2022-12-23T15:20:28.295Z,7.15
2022-12-23T15:23:03.874Z,6.95
2022-12-23T15:25:41.413Z,7.53
2022-12-23T15:28:39.452Z,6.88
2022-12-23T15:31:33.268Z,6.00
2022-12-23T15:34:16.773Z,7.25
2022-12-23T15:36:49.961Z,6.95
2022-12-23T15:39:27.202Z,6.47
2022-12-23T15:41:59.112Z,7.00
2022-12-23T15:44:41.676Z,7.00
2022-12-23T15:47:32.363Z,6.53
2022-12-23T15:50:05.624Z,7.03
2022-12-23T15:52:37.172Z,6.63
2022-12-23T15:55:22.937Z,6.82
2022-12-23T15:57:55.023Z,6.47
2022-12-23T16:03:11.896Z,6.40
2022-12-23T16:05:47.473Z,6.95
2022-12-23T16:08:30.167Z,6.88
2022-12-23T16:11:07.901Z,6.85
2022-12-23T16:13:43.112Z,6.57
2022-12-23T16:16:31.692Z,6.32
2022-12-23T16:19:03.108Z,6.18
2022-12-23T16:21:39.113Z,6.30
2022-12-23T16:24:11.352Z,6.30
2022-12-23T16:29:17.270Z,6.10
2022-12-23T16:34:27.055Z,6.18
2022-12-23T16:36:58.461Z,6.00
2022-12-23T16:39:29.668Z,5.63
2022-12-23T16:42:01.079Z,5.32
2022-12-23T16:44:32.266Z,5.83
2022-12-23T16:47:10.480Z,5.70
2022-12-23T16:49:41.724Z,6.03
2022-12-23T16:52:16.158Z,5.60
2022-12-23T16:54:47.298Z,5.78
2022-12-23T16:57:18.714Z,5.63
2022-12-23T16:59:51.547Z,5.73
2022-12-23T17:02:26.560Z,5.97
2022-12-23T17:04:57.774Z,5.13
2022-12-23T17:07:29.463Z,5.35
2022-12-23T17:10:00.724Z,5.35
2022-12-23T17:12:32.133Z,5.53
2022-12-23T17:15:03.277Z,5.20
2022-12-23T17:17:34.718Z,5.72
2022-12-23T17:20:06.231Z,5.70
2022-12-23T17:22:38.916Z,5.72
2022-12-23T17:25:12.116Z,5.93
2022-12-23T17:27:46.344Z,5.68
2022-12-23T17:30:19.703Z,6.18
2022-12-23T17:32:58.497Z,6.47
2022-12-23T17:35:30.626Z,6.22
2022-12-23T17:38:03.304Z,5.78
2022-12-23T17:40:34.626Z,6.00
2022-12-23T17:43:06.012Z,5.90
2022-12-23T17:45:37.272Z,6.30
2022-12-23T17:48:08.838Z,6.00
2022-12-23T17:50:41.177Z,6.40
2022-12-23T17:53:16.725Z,5.57
2022-12-23T17:55:48.801Z,6.03
2022-12-23T17:58:20.286Z,5.90
2022-12-23T18:00:51.535Z,5.63
2022-12-23T18:03:26.273Z,5.65
2022-12-23T18:06:01.627Z,6.00
2022-12-23T18:08:33.730Z,6.25
2022-12-23T18:11:05.057Z,5.53
2022-12-23T18:13:37.314Z,6.38
2022-12-23T18:16:08.606Z,6.88
2022-12-23T18:18:46.127Z,6.60
2022-12-23T18:21:29.405Z,6.53
2022-12-23T18:24:02.244Z,6.75
2022-12-23T18:26:33.455Z,7.40
2022-12-23T18:29:05.054Z,6.63
2022-12-23T18:31:37.740Z,6.60
2022-12-23T18:34:09.111Z,6.75
2022-12-23T18:36:40.444Z,7.17
2022-12-23T18:39:11.893Z,6.53
2022-12-23T18:41:43.087Z,7.03
2022-12-23T18:44:21.767Z,7.57
2022-12-23T18:46:53.061Z,7.70
2022-12-23T18:49:24.484Z,7.70
2022-12-23T18:51:55.658Z,7.33
2022-12-23T18:54:26.993Z,7.40
2022-12-23T18:56:58.436Z,7.53
2022-12-23T18:59:30.463Z,7.30
2022-12-23T19:02:01.981Z,7.82
2022-12-23T19:04:33.450Z,7.43
2022-12-23T19:07:04.651Z,7.73
2022-12-23T19:09:35.988Z,6.72
2022-12-23T19:12:07.486Z,7.22
2022-12-23T19:14:41.039Z,7.17
2022-12-23T19:17:12.331Z,7.45
2022-12-23T19:19:44.008Z,7.60
2022-12-23T19:22:15.238Z,7.57
2022-12-23T19:25:03.765Z,7.20
2022-12-23T19:27:36.582Z,8.18
2022-12-23T19:30:10.015Z,7.10
2022-12-23T19:32:41.771Z,7.75
2022-12-23T19:35:17.106Z,7.60
2022-12-23T19:37:48.421Z,7.50
2022-12-23T19:40:19.899Z,7.32
2022-12-23T19:42:51.137Z,7.40
2022-12-23T19:45:22.530Z,7.10
2022-12-23T19:47:53.632Z,7.93
2022-12-23T19:50:25.317Z,8.20
2022-12-23T19:52:57.603Z,7.45
2022-12-23T19:55:28.955Z,8.40
2022-12-23T19:58:00.118Z,8.20
2022-12-23T20:00:31.539Z,7.90
2022-12-23T20:03:02.853Z,7.83
2022-12-23T20:05:34.415Z,7.90
2022-12-23T20:08:05.645Z,8.43
2022-12-23T20:10:36.960Z,8.05
2022-12-23T20:13:08.216Z,7.78
2022-12-23T20:15:39.600Z,8.20
2022-12-23T20:18:11.009Z,8.25
2022-12-23T20:20:46.344Z,8.30
2022-12-23T20:23:17.583Z,8.38
2022-12-23T20:25:49.369Z,8.27
2022-12-23T20:28:20.968Z,8.50
2022-12-23T20:31:18.706Z,7.88
2022-12-23T20:33:51.759Z,9.05
2022-12-23T20:36:29.447Z,8.40
2022-12-23T20:39:01.342Z,8.15
2022-12-23T20:41:33.744Z,8.48
2022-12-23T20:46:56.440Z,8.27
2022-12-23T20:49:28.363Z,8.52
2022-12-23T20:51:59.563Z,8.25
2022-12-23T20:54:33.673Z,8.15
2022-12-23T20:57:05.399Z,7.80
2022-12-23T20:59:36.763Z,7.28
2022-12-23T21:02:07.989Z,8.40
2022-12-23T21:04:39.383Z,8.40
2022-12-23T21:07:10.940Z,7.78
2022-12-23T21:09:42.604Z,7.68
2022-12-23T21:12:13.733Z,7.10
2022-12-23T21:14:45.091Z,7.60
2022-12-23T21:17:16.303Z,7.57
2022-12-23T21:19:47.704Z,7.85
2022-12-23T21:22:18.848Z,8.18
2022-12-23T21:24:50.190Z,7.95
2022-12-23T21:27:21.395Z,7.72
2022-12-23T21:29:52.742Z,7.70
2022-12-23T21:32:23.941Z,8.15
2022-12-23T21:34:55.297Z,8.18
2022-12-23T21:37:26.483Z,7.75
2022-12-23T21:39:57.857Z,9.63
2022-12-23T21:42:29.071Z,9.10
2022-12-23T21:45:00.392Z,9.38
2022-12-23T21:47:31.658Z,8.33
2022-12-23T21:50:03.108Z,9.68
2022-12-23T21:52:34.274Z,9.97
2022-12-23T21:55:05.877Z,9.55
2022-12-23T21:57:37.046Z,9.33
2022-12-23T22:00:09.075Z,10.82
2022-12-23T22:02:40.362Z,8.93
2022-12-23T22:05:11.877Z,10.23
2022-12-23T22:07:43.013Z,9.87
2022-12-23T22:10:14.450Z,8.85
2022-12-23T22:12:45.620Z,9.97
2022-12-23T22:15:17.112Z,9.32
2022-12-23T22:17:48.269Z,10.57
2022-12-23T22:20:19.701Z,9.20
2022-12-23T22:22:51.239Z,9.80
2022-12-23T22:25:22.710Z,10.93
2022-12-23T22:27:53.917Z,10.13
2022-12-23T22:30:25.347Z,9.85
2022-12-23T22:32:56.560Z,9.25
2022-12-23T22:35:29.423Z,10.20
2022-12-23T22:38:00.710Z,9.25
2022-12-23T22:40:32.151Z,9.48
2022-12-23T22:43:03.269Z,10.53
2022-12-23T22:45:34.644Z,9.55
2022-12-23T22:48:06.197Z,10.63
2022-12-23T22:50:37.691Z,10.17
2022-12-23T22:53:08.975Z,10.30
2022-12-23T22:55:40.389Z,9.35
2022-12-23T22:58:11.587Z,10.43
2022-12-23T23:00:42.930Z,9.02
2022-12-23T23:03:14.160Z,8.65
2022-12-23T23:05:45.659Z,9.13
2022-12-23T23:08:16.868Z,10.47
2022-12-23T23:10:48.242Z,9.70
2022-12-23T23:13:19.520Z,10.13
2022-12-23T23:15:51.419Z,10.00
2022-12-23T23:18:22.751Z,8.93
2022-12-23T23:20:54.552Z,9.70
2022-12-23T23:23:25.979Z,9.63
2022-12-23T23:25:57.432Z,10.03
2022-12-23T23:28:28.720Z,9.03
2022-12-23T23:31:32.084Z,9.55
2022-12-23T23:33:51.349Z,9.90
2022-12-23T23:36:22.945Z,9.93
2022-12-23T23:38:54.177Z,10.57
2022-12-23T23:41:25.581Z,10.73
2022-12-23T23:43:56.748Z,10.63
2022-12-23T23:46:28.234Z,11.27
2022-12-23T23:48:59.770Z,10.97
2022-12-23T23:51:31.232Z,10.87
2022-12-23T23:54:02.481Z,11.13
2022-12-23T23:56:38.574Z,13.05
2022-12-23T23:59:11.483Z,13.02
